Terminal Aerodrome Forecast
Issued by NWS

Home | Current Version | Previous Version | Text Only | Print | Product List | Glossary On
Versions: 1 2 3 4 5 6 7 8 9 10 11 12 13 14 15 16 17 18 19 20
000
FTUS44 KTSA 231800 AAA
TAFMLC
TAF AMD
KMLC 231847Z 2319/2418 17005KT P6SM BKN060
      TEMPO 2319/2321 3SM -SHRA BR
     FM240000 17003KT P6SM SCT050
     FM240800 18003KT 5SM BR SCT050
     FM241400 19007KT P6SM SKC=

USA.gov is the U.S. government's official web portal to all federal, state and local government web resources and services.